sensor_id;sensor_type;location;lat;lon;timestamp;noise_LAeq;noise_LA_min;noise_LA_max;noise_LA01;noise_LA95
66888;Laerm;67239;51.680;5.976;2023-08-30T00:01:14;37.18;33.31;44.87;;
66888;Laerm;67239;51.680;5.976;2023-08-30T00:03:41;36.33;33.23;43.01;;
66888;Laerm;67239;51.680;5.976;2023-08-30T00:06:08;59.34;33.45;76.61;;
66888;Laerm;67239;51.680;5.976;2023-08-30T00:08:36;36.11;33.37;42.57;;
66888;Laerm;67239;51.680;5.976;2023-08-30T00:11:03;36.30;33.47;41.95;;
66888;Laerm;67239;51.680;5.976;2023-08-30T00:13:32;58.50;33.68;76.85;;
66888;Laerm;67239;51.680;5.976;2023-08-30T00:16:01;63.78;34.11;82.82;;
66888;Laerm;67239;51.680;5.976;2023-08-30T00:18:30;37.58;34.50;43.97;;
66888;Laerm;67239;51.680;5.976;2023-08-30T00:20:58;36.87;33.87;42.86;;
66888;Laerm;67239;51.680;5.976;2023-08-30T00:23:25;37.33;34.26;47.27;;
66888;Laerm;67239;51.680;5.976;2023-08-30T00:25:52;36.25;33.84;43.72;;
66888;Laerm;67239;51.680;5.976;2023-08-30T00:28:19;36.09;33.70;45.10;;
66888;Laerm;67239;51.680;5.976;2023-08-30T00:30:46;36.26;33.55;41.53;;
66888;Laerm;67239;51.680;5.976;2023-08-30T00:33:19;61.44;34.25;82.59;;
66888;Laerm;67239;51.680;5.976;2023-08-30T00:35:46;35.67;33.11;40.43;;
66888;Laerm;67239;51.680;5.976;2023-08-30T00:38:13;36.85;33.95;42.38;;
66888;Laerm;67239;51.680;5.976;2023-08-30T00:40:40;37.21;34.56;47.40;;
66888;Laerm;67239;51.680;5.976;2023-08-30T00:43:09;37.54;34.57;46.71;;
66888;Laerm;67239;51.680;5.976;2023-08-30T00:45:40;37.28;34.60;42.49;;
66888;Laerm;67239;51.680;5.976;2023-08-30T00:48:07;37.24;34.44;44.79;;
66888;Laerm;67239;51.680;5.976;2023-08-30T00:50:36;38.78;35.30;48.13;;
66888;Laerm;67239;51.680;5.976;2023-08-30T00:53:04;38.60;35.20;45.67;;
66888;Laerm;67239;51.680;5.976;2023-08-30T00:55:37;38.58;34.88;43.79;;
66888;Laerm;67239;51.680;5.976;2023-08-30T00:58:07;38.27;35.35;44.47;;
66888;Laerm;67239;51.680;5.976;2023-08-30T01:00:35;39.55;35.89;49.86;;
66888;Laerm;67239;51.680;5.976;2023-08-30T01:03:05;38.85;34.76;45.67;;
66888;Laerm;67239;51.680;5.976;2023-08-30T01:05:33;37.79;34.14;44.87;;
66888;Laerm;67239;51.680;5.976;2023-08-30T01:08:00;36.93;33.58;46.43;;
66888;Laerm;67239;51.680;5.976;2023-08-30T01:13:33;38.53;35.14;50.28;;
66888;Laerm;67239;51.680;5.976;2023-08-30T01:16:04;37.71;34.39;47.52;;
66888;Laerm;67239;51.680;5.976;2023-08-30T01:18:35;38.99;34.96;64.59;;
66888;Laerm;67239;51.680;5.976;2023-08-30T01:21:11;38.25;34.40;47.31;;
66888;Laerm;67239;51.680;5.976;2023-08-30T01:23:56;37.57;35.03;41.59;;
66888;Laerm;67239;51.680;5.976;2023-08-30T01:26:46;37.21;34.50;42.77;;
66888;Laerm;67239;51.680;5.976;2023-08-30T01:29:19;37.29;34.71;46.30;;
66888;Laerm;67239;51.680;5.976;2023-08-30T01:31:48;37.33;34.80;41.56;;
66888;Laerm;67239;51.680;5.976;2023-08-30T01:34:16;37.45;34.90;43.00;;
66888;Laerm;67239;51.680;5.976;2023-08-30T01:36:44;38.02;34.89;42.22;;
66888;Laerm;67239;51.680;5.976;2023-08-30T01:39:14;38.08;35.43;45.24;;
66888;Laerm;67239;51.680;5.976;2023-08-30T01:41:43;38.10;34.83;43.84;;
66888;Laerm;67239;51.680;5.976;2023-08-30T01:44:12;38.41;36.04;40.87;;
66888;Laerm;67239;51.680;5.976;2023-08-30T01:46:44;38.55;35.94;41.90;;
66888;Laerm;67239;51.680;5.976;2023-08-30T01:49:13;38.01;34.52;53.28;;
66888;Laerm;67239;51.680;5.976;2023-08-30T01:51:41;56.58;35.35;76.44;;
66888;Laerm;67239;51.680;5.976;2023-08-30T01:54:12;42.93;35.47;59.94;;
66888;Laerm;67239;51.680;5.976;2023-08-30T01:56:44;38.31;34.45;43.70;;
66888;Laerm;67239;51.680;5.976;2023-08-30T01:59:12;37.94;34.82;48.45;;
66888;Laerm;67239;51.680;5.976;2023-08-30T02:01:40;36.98;34.50;42.42;;
66888;Laerm;67239;51.680;5.976;2023-08-30T02:04:07;37.20;33.78;41.11;;
66888;Laerm;67239;51.680;5.976;2023-08-30T02:06:53;38.93;35.47;44.60;;
66888;Laerm;67239;51.680;5.976;2023-08-30T02:09:55;37.99;34.40;56.82;;
66888;Laerm;67239;51.680;5.976;2023-08-30T02:12:39;63.01;35.31;78.43;;
66888;Laerm;67239;51.680;5.976;2023-08-30T02:15:11;38.22;34.90;44.28;;
66888;Laerm;67239;51.680;5.976;2023-08-30T02:17:40;39.35;34.81;52.64;;
66888;Laerm;67239;51.680;5.976;2023-08-30T02:20:08;38.16;35.29;46.85;;
66888;Laerm;67239;51.680;5.976;2023-08-30T02:22:35;39.57;35.57;46.12;;
66888;Laerm;67239;51.680;5.976;2023-08-30T02:25:02;38.26;34.55;44.35;;
66888;Laerm;67239;51.680;5.976;2023-08-30T02:27:34;52.73;35.09;71.28;;
66888;Laerm;67239;51.680;5.976;2023-08-30T02:30:05;39.68;34.96;47.24;;
66888;Laerm;67239;51.680;5.976;2023-08-30T02:32:32;38.38;35.19;43.98;;
66888;Laerm;67239;51.680;5.976;2023-08-30T02:35:00;59.53;34.59;76.55;;
66888;Laerm;67239;51.680;5.976;2023-08-30T02:37:27;56.54;35.36;75.50;;
66888;Laerm;67239;51.680;5.976;2023-08-30T02:39:54;39.13;35.43;47.31;;
66888;Laerm;67239;51.680;5.976;2023-08-30T02:42:21;38.22;35.17;43.36;;
66888;Laerm;67239;51.680;5.976;2023-08-30T02:44:48;38.41;35.23;43.32;;
66888;Laerm;67239;51.680;5.976;2023-08-30T02:47:15;61.11;35.55;80.20;;
66888;Laerm;67239;51.680;5.976;2023-08-30T02:49:42;38.70;35.34;43.98;;
66888;Laerm;67239;51.680;5.976;2023-08-30T02:52:09;39.21;35.20;48.58;;
66888;Laerm;67239;51.680;5.976;2023-08-30T02:54:36;38.48;35.37;45.78;;
66888;Laerm;67239;51.680;5.976;2023-08-30T02:57:04;62.51;35.32;80.34;;
66888;Laerm;67239;51.680;5.976;2023-08-30T02:59:31;41.75;36.39;67.34;;
66888;Laerm;67239;51.680;5.976;2023-08-30T03:02:04;62.06;35.89;82.83;;
66888;Laerm;67239;51.680;5.976;2023-08-30T03:04:31;62.30;37.84;82.65;;
66888;Laerm;67239;51.680;5.976;2023-08-30T03:06:58;60.71;37.14;80.43;;
66888;Laerm;67239;51.680;5.976;2023-08-30T03:09:27;62.32;36.86;76.73;;
66888;Laerm;67239;51.680;5.976;2023-08-30T03:11:54;41.08;36.73;54.17;;
66888;Laerm;67239;51.680;5.976;2023-08-30T03:14:22;58.20;37.50;75.13;;
66888;Laerm;67239;51.680;5.976;2023-08-30T03:16:50;59.72;37.96;77.74;;
66888;Laerm;67239;51.680;5.976;2023-08-30T03:19:17;55.32;36.83;78.56;;
66888;Laerm;67239;51.680;5.976;2023-08-30T03:21:44;54.32;37.44;71.77;;
66888;Laerm;67239;51.680;5.976;2023-08-30T03:24:11;52.63;37.44;72.03;;
66888;Laerm;67239;51.680;5.976;2023-08-30T03:26:43;62.37;37.69;80.24;;
66888;Laerm;67239;51.680;5.976;2023-08-30T03:29:11;62.41;38.12;83.27;;
66888;Laerm;67239;51.680;5.976;2023-08-30T03:31:38;65.38;38.60;79.60;;
66888;Laerm;67239;51.680;5.976;2023-08-30T03:34:05;58.26;38.62;75.14;;
66888;Laerm;67239;51.680;5.976;2023-08-30T03:36:32;62.57;39.64;79.01;;
66888;Laerm;67239;51.680;5.976;2023-08-30T03:39:00;65.89;40.49;80.88;;
66888;Laerm;67239;51.680;5.976;2023-08-30T03:41:27;61.63;39.78;75.33;;
66888;Laerm;67239;51.680;5.976;2023-08-30T03:43:54;62.98;40.18;77.99;;
66888;Laerm;67239;51.680;5.976;2023-08-30T03:46:21;59.64;38.73;77.73;;
66888;Laerm;67239;51.680;5.976;2023-08-30T03:48:48;55.65;39.04;73.20;;
66888;Laerm;67239;51.680;5.976;2023-08-30T03:51:16;65.76;39.64;81.70;;
66888;Laerm;67239;51.680;5.976;2023-08-30T03:53:43;67.67;39.06;84.01;;
66888;Laerm;67239;51.680;5.976;2023-08-30T03:56:10;62.04;38.43;77.58;;
66888;Laerm;67239;51.680;5.976;2023-08-30T03:58:38;64.22;38.32;80.68;;
66888;Laerm;67239;51.680;5.976;2023-08-30T04:01:05;66.29;39.89;79.23;;
66888;Laerm;67239;51.680;5.976;2023-08-30T04:03:34;67.22;40.10;85.27;;
66888;Laerm;67239;51.680;5.976;2023-08-30T04:06:01;68.92;45.74;81.24;;
66888;Laerm;67239;51.680;5.976;2023-08-30T04:08:28;66.89;41.48;80.91;;
66888;Laerm;67239;51.680;5.976;2023-08-30T04:10:56;62.03;40.21;75.75;;
66888;Laerm;67239;51.680;5.976;2023-08-30T04:13:23;67.88;41.98;82.57;;
66888;Laerm;67239;51.680;5.976;2023-08-30T04:15:51;63.88;40.32;77.17;;
66888;Laerm;67239;51.680;5.976;2023-08-30T04:18:18;61.52;39.63;77.11;;
66888;Laerm;67239;51.680;5.976;2023-08-30T04:20:47;64.77;40.37;80.37;;
66888;Laerm;67239;51.680;5.976;2023-08-30T04:23:14;69.55;42.68;82.61;;
66888;Laerm;67239;51.680;5.976;2023-08-30T04:25:44;59.62;40.82;75.82;;
66888;Laerm;67239;51.680;5.976;2023-08-30T04:28:12;66.00;42.73;81.16;;
66888;Laerm;67239;51.680;5.976;2023-08-30T04:30:39;61.63;41.73;76.99;;
66888;Laerm;67239;51.680;5.976;2023-08-30T04:33:07;66.80;42.36;83.31;;
66888;Laerm;67239;51.680;5.976;2023-08-30T04:35:35;65.76;43.11;78.81;;
66888;Laerm;67239;51.680;5.976;2023-08-30T04:38:02;64.15;43.66;78.13;;
66888;Laerm;67239;51.680;5.976;2023-08-30T04:40:31;64.87;44.89;78.85;;
66888;Laerm;67239;51.680;5.976;2023-08-30T04:43:00;66.25;44.38;82.05;;
66888;Laerm;67239;51.680;5.976;2023-08-30T04:45:28;67.09;44.53;84.05;;
66888;Laerm;67239;51.680;5.976;2023-08-30T04:47:56;69.66;45.01;84.68;;
66888;Laerm;67239;51.680;5.976;2023-08-30T04:50:25;65.10;45.08;79.66;;
66888;Laerm;67239;51.680;5.976;2023-08-30T04:52:52;63.62;46.02;77.51;;
66888;Laerm;67239;51.680;5.976;2023-08-30T04:55:19;67.47;44.76;79.65;;
66888;Laerm;67239;51.680;5.976;2023-08-30T04:57:47;65.86;47.47;79.65;;
66888;Laerm;67239;51.680;5.976;2023-08-30T05:00:17;68.00;44.79;82.99;;
66888;Laerm;67239;51.680;5.976;2023-08-30T05:02:46;59.95;43.52;76.19;;
66888;Laerm;67239;51.680;5.976;2023-08-30T05:05:14;66.74;44.11;80.60;;
66888;Laerm;67239;51.680;5.976;2023-08-30T05:07:42;66.51;46.35;79.59;;
66888;Laerm;67239;51.680;5.976;2023-08-30T05:10:09;63.35;44.31;78.04;;
66888;Laerm;67239;51.680;5.976;2023-08-30T05:12:37;70.21;45.34;87.13;;
66888;Laerm;67239;51.680;5.976;2023-08-30T05:15:05;65.69;45.01;78.85;;
66888;Laerm;67239;51.680;5.976;2023-08-30T05:17:33;68.53;46.19;80.79;;
66888;Laerm;67239;51.680;5.976;2023-08-30T05:20:01;65.60;44.53;80.86;;
66888;Laerm;67239;51.680;5.976;2023-08-30T05:22:28;69.05;47.90;83.21;;
66888;Laerm;67239;51.680;5.976;2023-08-30T05:24:55;70.34;44.17;84.88;;
66888;Laerm;67239;51.680;5.976;2023-08-30T05:27:22;63.89;43.67;76.60;;
66888;Laerm;67239;51.680;5.976;2023-08-30T05:29:50;67.16;43.92;78.62;;
66888;Laerm;67239;51.680;5.976;2023-08-30T05:32:18;67.94;43.01;83.67;;
66888;Laerm;67239;51.680;5.976;2023-08-30T05:35:05;69.42;47.39;83.88;;
66888;Laerm;67239;51.680;5.976;2023-08-30T05:37:59;69.84;43.77;86.92;;
66888;Laerm;67239;51.680;5.976;2023-08-30T05:40:49;66.50;45.17;80.29;;
66888;Laerm;67239;51.680;5.976;2023-08-30T05:43:16;69.39;50.42;81.06;;
66888;Laerm;67239;51.680;5.976;2023-08-30T05:45:45;67.12;45.31;78.63;;
66888;Laerm;67239;51.680;5.976;2023-08-30T05:48:12;66.50;45.94;79.83;;
66888;Laerm;67239;51.680;5.976;2023-08-30T05:50:39;68.44;43.82;80.21;;
66888;Laerm;67239;51.680;5.976;2023-08-30T05:53:07;68.04;44.39;81.83;;
66888;Laerm;67239;51.680;5.976;2023-08-30T05:55:34;66.83;45.82;78.27;;
66888;Laerm;67239;51.680;5.976;2023-08-30T05:58:01;63.00;44.43;78.61;;
66888;Laerm;67239;51.680;5.976;2023-08-30T06:00:29;69.12;46.13;81.13;;
66888;Laerm;67239;51.680;5.976;2023-08-30T06:02:56;66.27;48.11;78.93;;
66888;Laerm;67239;51.680;5.976;2023-08-30T06:05:23;69.12;48.59;79.13;;
66888;Laerm;67239;51.680;5.976;2023-08-30T06:07:50;70.22;50.01;81.32;;
66888;Laerm;67239;51.680;5.976;2023-08-30T06:10:17;68.69;48.32;79.16;;
66888;Laerm;67239;51.680;5.976;2023-08-30T06:12:45;66.56;45.14;84.32;;
66888;Laerm;67239;51.680;5.976;2023-08-30T06:15:13;69.25;47.10;86.77;;
66888;Laerm;67239;51.680;5.976;2023-08-30T06:17:40;68.16;46.95;82.16;;
66888;Laerm;67239;51.680;5.976;2023-08-30T06:20:08;66.60;45.34;81.76;;
66888;Laerm;67239;51.680;5.976;2023-08-30T06:22:35;70.53;49.31;84.64;;
66888;Laerm;67239;51.680;5.976;2023-08-30T06:25:02;67.78;46.12;84.92;;
66888;Laerm;67239;51.680;5.976;2023-08-30T06:27:31;70.53;49.92;82.54;;
66888;Laerm;67239;51.680;5.976;2023-08-30T06:29:58;67.02;44.05;78.76;;
66888;Laerm;67239;51.680;5.976;2023-08-30T06:32:25;65.44;43.89;78.58;;
66888;Laerm;67239;51.680;5.976;2023-08-30T06:34:52;68.42;44.07;82.55;;
66888;Laerm;67239;51.680;5.976;2023-08-30T06:37:19;70.56;45.31;87.09;;
66888;Laerm;67239;51.680;5.976;2023-08-30T06:39:46;68.41;45.38;81.03;;
66888;Laerm;67239;51.680;5.976;2023-08-30T06:42:13;68.82;46.61;83.70;;
66888;Laerm;67239;51.680;5.976;2023-08-30T06:44:40;68.02;43.28;81.78;;
66888;Laerm;67239;51.680;5.976;2023-08-30T06:47:07;67.73;46.05;83.37;;
66888;Laerm;67239;51.680;5.976;2023-08-30T06:49:35;70.63;45.85;81.35;;
66888;Laerm;67239;51.680;5.976;2023-08-30T06:52:02;69.79;45.21;83.31;;
66888;Laerm;67239;51.680;5.976;2023-08-30T06:54:34;70.25;46.68;83.42;;
66888;Laerm;67239;51.680;5.976;2023-08-30T06:57:01;65.14;44.68;79.20;;
66888;Laerm;67239;51.680;5.976;2023-08-30T06:59:29;71.37;54.53;83.28;;
66888;Laerm;67239;51.680;5.976;2023-08-30T07:01:56;68.16;42.95;85.27;;
66888;Laerm;67239;51.680;5.976;2023-08-30T07:04:24;69.54;47.31;82.78;;
66888;Laerm;67239;51.680;5.976;2023-08-30T07:06:52;68.12;43.06;82.82;;
66888;Laerm;67239;51.680;5.976;2023-08-30T07:09:19;65.40;42.73;80.65;;
66888;Laerm;67239;51.680;5.976;2023-08-30T07:11:49;66.35;46.33;81.69;;
66888;Laerm;67239;51.680;5.976;2023-08-30T07:14:16;68.39;45.00;84.78;;
66888;Laerm;67239;51.680;5.976;2023-08-30T07:16:43;67.21;42.32;85.17;;
66888;Laerm;67239;51.680;5.976;2023-08-30T07:19:11;68.06;44.89;81.00;;
66888;Laerm;67239;51.680;5.976;2023-08-30T07:21:38;65.44;43.96;80.24;;
66888;Laerm;67239;51.680;5.976;2023-08-30T07:24:07;67.80;44.30;83.60;;
66888;Laerm;67239;51.680;5.976;2023-08-30T07:26:35;68.64;44.11;82.57;;
66888;Laerm;67239;51.680;5.976;2023-08-30T07:29:03;68.06;44.70;82.00;;
66888;Laerm;67239;51.680;5.976;2023-08-30T07:31:33;68.75;45.75;80.40;;
66888;Laerm;67239;51.680;5.976;2023-08-30T07:34:00;67.56;46.54;81.29;;
66888;Laerm;67239;51.680;5.976;2023-08-30T07:36:29;67.37;49.16;81.59;;
66888;Laerm;67239;51.680;5.976;2023-08-30T07:39:12;71.80;55.23;83.01;;
66888;Laerm;67239;51.680;5.976;2023-08-30T07:41:39;70.27;50.99;83.62;;
66888;Laerm;67239;51.680;5.976;2023-08-30T07:44:06;70.94;50.21;83.77;;
66888;Laerm;67239;51.680;5.976;2023-08-30T07:46:34;71.59;50.08;84.01;;
66888;Laerm;67239;51.680;5.976;2023-08-30T07:49:01;69.25;50.61;83.94;;
66888;Laerm;67239;51.680;5.976;2023-08-30T07:51:29;72.97;57.15;85.61;;
66888;Laerm;67239;51.680;5.976;2023-08-30T07:53:56;72.25;56.91;84.93;;
66888;Laerm;67239;51.680;5.976;2023-08-30T07:56:23;74.06;58.14;84.81;;
66888;Laerm;67239;51.680;5.976;2023-08-30T07:58:50;71.37;55.61;86.26;;
66888;Laerm;67239;51.680;5.976;2023-08-30T08:01:17;71.30;55.97;85.94;;
66888;Laerm;67239;51.680;5.976;2023-08-30T08:03:44;70.85;55.02;86.74;;
66888;Laerm;67239;51.680;5.976;2023-08-30T08:06:31;71.30;55.62;84.58;;
66888;Laerm;67239;51.680;5.976;2023-08-30T08:08:58;72.28;54.44;84.27;;
66888;Laerm;67239;51.680;5.976;2023-08-30T08:11:26;70.69;52.97;85.36;;
66888;Laerm;67239;51.680;5.976;2023-08-30T08:13:54;66.95;52.76;79.25;;
66888;Laerm;67239;51.680;5.976;2023-08-30T08:16:21;68.31;54.39;81.00;;
66888;Laerm;67239;51.680;5.976;2023-08-30T08:18:48;71.38;52.47;86.45;;
66888;Laerm;67239;51.680;5.976;2023-08-30T08:21:17;69.10;51.74;81.91;;
66888;Laerm;67239;51.680;5.976;2023-08-30T08:23:45;69.77;53.30;81.75;;
66888;Laerm;67239;51.680;5.976;2023-08-30T08:26:16;69.99;50.98;83.23;;
66888;Laerm;67239;51.680;5.976;2023-08-30T08:28:43;68.40;47.80;82.08;;
66888;Laerm;67239;51.680;5.976;2023-08-30T08:31:10;67.56;47.83;85.22;;
66888;Laerm;67239;51.680;5.976;2023-08-30T08:33:37;69.54;48.77;81.69;;
66888;Laerm;67239;51.680;5.976;2023-08-30T08:36:05;67.13;49.58;79.13;;
66888;Laerm;67239;51.680;5.976;2023-08-30T08:38:32;71.01;50.83;83.79;;
66888;Laerm;67239;51.680;5.976;2023-08-30T08:41:05;67.94;47.95;81.64;;
66888;Laerm;67239;51.680;5.976;2023-08-30T08:43:33;69.27;48.67;81.69;;
66888;Laerm;67239;51.680;5.976;2023-08-30T08:46:04;68.97;46.15;81.35;;
66888;Laerm;67239;51.680;5.976;2023-08-30T08:48:39;72.42;49.64;85.36;;
66888;Laerm;67239;51.680;5.976;2023-08-30T08:51:07;72.11;52.81;85.19;;
66888;Laerm;67239;51.680;5.976;2023-08-30T08:53:37;70.13;51.09;85.85;;
66888;Laerm;67239;51.680;5.976;2023-08-30T08:56:06;71.94;52.42;85.17;;
66888;Laerm;67239;51.680;5.976;2023-08-30T08:58:36;69.52;51.45;82.38;;
66888;Laerm;67239;51.680;5.976;2023-08-30T09:01:06;70.98;49.71;84.83;;
66888;Laerm;67239;51.680;5.976;2023-08-30T09:03:44;68.71;50.01;81.56;;
66888;Laerm;67239;51.680;5.976;2023-08-30T09:06:12;73.59;50.28;84.45;;
66888;Laerm;67239;51.680;5.976;2023-08-30T09:08:39;68.50;50.24;83.83;;
66888;Laerm;67239;51.680;5.976;2023-08-30T09:11:07;70.81;50.86;84.21;;
66888;Laerm;67239;51.680;5.976;2023-08-30T09:13:35;73.45;48.05;85.18;;
66888;Laerm;67239;51.680;5.976;2023-08-30T09:16:02;66.56;47.24;80.84;;
66888;Laerm;67239;51.680;5.976;2023-08-30T09:18:29;69.60;51.57;83.64;;
66888;Laerm;67239;51.680;5.976;2023-08-30T09:21:07;68.85;49.44;83.81;;
66888;Laerm;67239;51.680;5.976;2023-08-30T09:23:34;69.11;48.45;82.29;;
66888;Laerm;67239;51.680;5.976;2023-08-30T09:26:03;70.55;50.71;85.49;;
66888;Laerm;67239;51.680;5.976;2023-08-30T09:28:31;69.45;48.58;82.56;;
66888;Laerm;67239;51.680;5.976;2023-08-30T09:31:01;70.93;49.40;83.99;;
66888;Laerm;67239;51.680;5.976;2023-08-30T09:33:47;69.50;51.37;83.68;;
66888;Laerm;67239;51.680;5.976;2023-08-30T09:36:17;69.53;50.74;84.00;;
66888;Laerm;67239;51.680;5.976;2023-08-30T09:38:49;72.28;51.99;86.92;;
66888;Laerm;67239;51.680;5.976;2023-08-30T09:41:17;68.81;52.72;80.27;;
66888;Laerm;67239;51.680;5.976;2023-08-30T09:43:44;69.35;50.86;82.64;;
66888;Laerm;67239;51.680;5.976;2023-08-30T09:46:11;71.75;51.93;84.34;;
66888;Laerm;67239;51.680;5.976;2023-08-30T09:48:39;70.38;51.19;82.25;;
66888;Laerm;67239;51.680;5.976;2023-08-30T09:51:08;72.01;51.89;84.12;;
66888;Laerm;67239;51.680;5.976;2023-08-30T09:53:44;70.46;52.29;84.01;;
66888;Laerm;67239;51.680;5.976;2023-08-30T09:56:35;69.14;49.92;80.69;;
66888;Laerm;67239;51.680;5.976;2023-08-30T09:59:03;71.61;50.91;83.43;;
66888;Laerm;67239;51.680;5.976;2023-08-30T10:01:31;69.33;51.45;84.33;;
66888;Laerm;67239;51.680;5.976;2023-08-30T10:04:01;69.66;48.21;82.83;;
66888;Laerm;67239;51.680;5.976;2023-08-30T10:06:30;68.81;47.25;81.24;;
66888;Laerm;67239;51.680;5.976;2023-08-30T10:09:00;70.78;51.18;82.88;;
66888;Laerm;67239;51.680;5.976;2023-08-30T10:11:33;69.71;51.70;83.03;;
66888;Laerm;67239;51.680;5.976;2023-08-30T10:14:02;69.68;51.58;79.82;;
66888;Laerm;67239;51.680;5.976;2023-08-30T10:16:43;69.22;48.93;82.58;;
66888;Laerm;67239;51.680;5.976;2023-08-30T10:19:31;69.15;50.33;80.44;;
66888;Laerm;67239;51.680;5.976;2023-08-30T10:22:06;70.56;49.72;84.30;;
66888;Laerm;67239;51.680;5.976;2023-08-30T10:24:48;67.39;46.16;83.95;;
66888;Laerm;67239;51.680;5.976;2023-08-30T10:27:41;70.94;48.22;83.25;;
66888;Laerm;67239;51.680;5.976;2023-08-30T10:30:12;69.40;51.67;82.20;;
66888;Laerm;67239;51.680;5.976;2023-08-30T10:32:41;69.94;48.37;81.91;;
66888;Laerm;67239;51.680;5.976;2023-08-30T10:35:17;71.23;50.78;83.47;;
66888;Laerm;67239;51.680;5.976;2023-08-30T10:37:59;70.73;49.93;82.02;;
66888;Laerm;67239;51.680;5.976;2023-08-30T10:40:26;69.35;49.36;83.49;;
66888;Laerm;67239;51.680;5.976;2023-08-30T10:43:01;69.84;48.65;84.52;;
66888;Laerm;67239;51.680;5.976;2023-08-30T10:45:29;66.07;45.43;78.11;;
66888;Laerm;67239;51.680;5.976;2023-08-30T10:47:59;69.24;45.31;80.50;;
66888;Laerm;67239;51.680;5.976;2023-08-30T10:50:32;69.23;46.79;84.46;;
66888;Laerm;67239;51.680;5.976;2023-08-30T10:53:00;67.44;45.49;79.59;;
66888;Laerm;67239;51.680;5.976;2023-08-30T10:55:27;66.96;46.61;78.19;;
66888;Laerm;67239;51.680;5.976;2023-08-30T10:58:02;69.61;46.07;86.22;;
66888;Laerm;67239;51.680;5.976;2023-08-30T11:00:33;69.33;50.44;82.59;;
66888;Laerm;67239;51.680;5.976;2023-08-30T11:03:03;70.68;48.22;82.18;;
66888;Laerm;67239;51.680;5.976;2023-08-30T11:05:30;69.38;49.91;81.97;;
66888;Laerm;67239;51.680;5.976;2023-08-30T11:07:58;66.46;47.01;78.15;;
66888;Laerm;67239;51.680;5.976;2023-08-30T11:10:25;66.90;47.66;78.70;;
66888;Laerm;67239;51.680;5.976;2023-08-30T11:12:52;65.61;46.69;80.61;;
66888;Laerm;67239;51.680;5.976;2023-08-30T11:15:19;68.22;49.26;84.88;;
66888;Laerm;67239;51.680;5.976;2023-08-30T11:17:48;67.41;48.22;79.83;;
66888;Laerm;67239;51.680;5.976;2023-08-30T11:20:16;69.19;47.51;84.64;;
66888;Laerm;67239;51.680;5.976;2023-08-30T11:22:47;68.54;46.03;81.75;;
66888;Laerm;67239;51.680;5.976;2023-08-30T11:25:16;68.22;49.52;79.51;;
66888;Laerm;67239;51.680;5.976;2023-08-30T11:27:43;67.55;45.69;79.32;;
66888;Laerm;67239;51.680;5.976;2023-08-30T11:30:11;68.62;47.31;81.85;;
66888;Laerm;67239;51.680;5.976;2023-08-30T11:32:40;70.80;48.54;84.96;;
66888;Laerm;67239;51.680;5.976;2023-08-30T11:35:10;68.38;48.73;82.40;;
66888;Laerm;67239;51.680;5.976;2023-08-30T11:37:39;70.06;51.33;82.12;;
66888;Laerm;67239;51.680;5.976;2023-08-30T11:40:07;68.58;48.62;82.84;;
66888;Laerm;67239;51.680;5.976;2023-08-30T11:42:34;70.97;49.22;82.78;;
66888;Laerm;67239;51.680;5.976;2023-08-30T11:45:03;67.79;50.32;81.11;;
66888;Laerm;67239;51.680;5.976;2023-08-30T11:47:31;67.94;50.30;79.03;;
66888;Laerm;67239;51.680;5.976;2023-08-30T11:49:59;68.07;49.46;80.90;;
66888;Laerm;67239;51.680;5.976;2023-08-30T11:52:27;69.73;56.99;82.07;;
66888;Laerm;67239;51.680;5.976;2023-08-30T11:54:55;73.43;59.43;83.06;;
66888;Laerm;67239;51.680;5.976;2023-08-30T11:57:22;71.24;53.62;85.31;;
66888;Laerm;67239;51.680;5.976;2023-08-30T11:59:49;73.72;50.78;85.19;;
66888;Laerm;67239;51.680;5.976;2023-08-30T12:02:18;69.43;47.32;83.72;;
66888;Laerm;67239;51.680;5.976;2023-08-30T12:04:47;71.85;53.97;83.94;;
66888;Laerm;67239;51.680;5.976;2023-08-30T12:07:23;68.23;49.21;77.81;;
66888;Laerm;67239;51.680;5.976;2023-08-30T12:09:51;69.42;48.44;83.81;;
66888;Laerm;67239;51.680;5.976;2023-08-30T12:12:18;68.92;45.84;80.11;;
66888;Laerm;67239;51.680;5.976;2023-08-30T12:14:54;71.01;51.86;81.91;;
66888;Laerm;67239;51.680;5.976;2023-08-30T12:17:22;68.82;47.85;80.75;;
66888;Laerm;67239;51.680;5.976;2023-08-30T12:19:58;69.68;45.60;84.56;;
66888;Laerm;67239;51.680;5.976;2023-08-30T12:22:39;70.79;48.91;82.96;;
66888;Laerm;67239;51.680;5.976;2023-08-30T12:25:24;68.89;48.96;79.14;;
66888;Laerm;67239;51.680;5.976;2023-08-30T12:27:52;70.77;50.49;82.56;;
66888;Laerm;67239;51.680;5.976;2023-08-30T12:30:20;68.95;48.94;81.75;;
66888;Laerm;67239;51.680;5.976;2023-08-30T12:32:47;70.07;48.44;84.60;;
66888;Laerm;67239;51.680;5.976;2023-08-30T12:35:16;69.95;45.53;81.83;;
66888;Laerm;67239;51.680;5.976;2023-08-30T12:37:43;71.49;51.23;83.01;;
66888;Laerm;67239;51.680;5.976;2023-08-30T12:40:11;70.53;49.70;83.40;;
66888;Laerm;67239;51.680;5.976;2023-08-30T12:42:38;69.94;47.80;82.93;;
66888;Laerm;67239;51.680;5.976;2023-08-30T12:45:06;70.03;49.59;82.63;;
66888;Laerm;67239;51.680;5.976;2023-08-30T12:47:35;69.89;50.34;82.77;;
66888;Laerm;67239;51.680;5.976;2023-08-30T12:50:04;66.24;48.18;78.67;;
66888;Laerm;67239;51.680;5.976;2023-08-30T12:52:31;69.75;51.15;81.57;;
66888;Laerm;67239;51.680;5.976;2023-08-30T12:54:58;67.44;47.12;79.46;;
66888;Laerm;67239;51.680;5.976;2023-08-30T12:57:25;70.70;50.92;83.94;;
66888;Laerm;67239;51.680;5.976;2023-08-30T12:59:53;66.88;49.02;81.03;;
66888;Laerm;67239;51.680;5.976;2023-08-30T13:02:20;65.59;47.31;77.47;;
66888;Laerm;67239;51.680;5.976;2023-08-30T13:04:47;67.78;47.29;81.68;;
66888;Laerm;67239;51.680;5.976;2023-08-30T13:07:14;66.63;48.06;78.10;;
66888;Laerm;67239;51.680;5.976;2023-08-30T13:09:41;66.71;48.51;83.51;;
66888;Laerm;67239;51.680;5.976;2023-08-30T13:12:08;65.80;48.70;77.35;;
66888;Laerm;67239;51.680;5.976;2023-08-30T13:14:36;64.64;48.40;78.66;;
66888;Laerm;67239;51.680;5.976;2023-08-30T13:17:03;67.39;50.06;79.46;;
66888;Laerm;67239;51.680;5.976;2023-08-30T13:19:30;67.00;48.89;78.18;;
66888;Laerm;67239;51.680;5.976;2023-08-30T13:21:58;66.63;49.20;80.22;;
66888;Laerm;67239;51.680;5.976;2023-08-30T13:24:25;69.27;46.38;81.40;;
66888;Laerm;67239;51.680;5.976;2023-08-30T13:26:53;68.97;47.51;82.20;;
66888;Laerm;67239;51.680;5.976;2023-08-30T13:29:20;66.88;47.98;81.20;;
66888;Laerm;67239;51.680;5.976;2023-08-30T13:31:47;68.74;47.34;83.46;;
66888;Laerm;67239;51.680;5.976;2023-08-30T13:34:14;68.63;45.75;85.23;;
66888;Laerm;67239;51.680;5.976;2023-08-30T13:36:41;69.63;47.67;80.86;;
66888;Laerm;67239;51.680;5.976;2023-08-30T13:39:08;67.96;47.67;79.51;;
66888;Laerm;67239;51.680;5.976;2023-08-30T13:41:35;67.69;46.75;79.18;;
66888;Laerm;67239;51.680;5.976;2023-08-30T13:44:03;69.39;47.20;81.25;;
66888;Laerm;67239;51.680;5.976;2023-08-30T13:46:30;68.96;47.50;81.51;;
66888;Laerm;67239;51.680;5.976;2023-08-30T13:48:58;70.16;46.98;82.85;;
66888;Laerm;67239;51.680;5.976;2023-08-30T13:51:26;68.35;49.49;79.81;;
66888;Laerm;67239;51.680;5.976;2023-08-30T13:53:53;66.62;47.84;79.90;;
66888;Laerm;67239;51.680;5.976;2023-08-30T13:56:21;69.56;49.71;79.32;;
66888;Laerm;67239;51.680;5.976;2023-08-30T13:58:49;68.96;47.38;82.30;;